Latest Weather Observations for Tamworth Airport

IDN60801

Issued at 10:42 am EDT Saturday 15 December 2018 (issued every 10 minutes, with the page automatically refreshed every 10 minutes)

About weather observations | Map of weather stations | Latest weather observations for NSW | Other Formats
Station Details ID: 055325 Name: TAMWORTH AIRPORT AWS Lat: -31.07 Lon: 150.84 Height: 394.9 m
Data from the previous 72 hours. | See also: Recent months at Tamworth Airport
Date/Time
EDT
Temp
°C
App
Temp
°C
Dew
Point
°C
Rel
Hum
%
Delta-T
°C
Wind Press
QNH
hPa
Press
MSL
hPa
Rain since
9am
mm
Dir  Spd
km/h
Gust
km/h
Spd
kts
Gust
kts
15/10:30am 27.6 25.7 16.6 51 7.0 N 22 33 12 18 1008.8 1006.8 0.0
15/10:00am 26.5 24.0 16.1 52 6.5 N 24 35 13 19 1008.9 1006.9 0.0
15/09:30am 24.6 24.0 16.6 61 5.0 N 15 26 8 14 1009.1 1007.1 0.0
15/09:00am 24.6 25.0 17.3 64 4.6 N 11 20 6 11 1009.1 1007.1 6.6
15/08:30am 23.6 25.1 16.6 65 4.4 NW 4 9 2 5 1009.0 1007.0 6.6
15/08:00am 22.6 23.2 16.9 70 3.6 SE 9 15 5 8 1008.8 1006.8 6.6
15/07:30am 21.4 23.6 16.4 73 3.1 CALM 0 0 0 0 1008.5 1006.5 6.6
15/07:00am 20.2 21.3 17.0 82 2.0 SSE 7 9 4 5 1007.7 1005.6 6.6
15/06:30am 18.5 19.6 16.7 89 1.1 SE 6 9 3 5 1007.2 1005.2 6.6
15/06:00am 17.5 18.2 15.7 89 1.1 S 6 9 3 5 1007.0 1005.0 6.6
15/05:30am 17.8 18.0 15.8 88 1.2 ESE 9 13 5 7 1006.6 1004.6 6.6
15/05:00am 17.4 18.9 15.6 89 1.1 S 2 7 1 4 1006.4 1004.4 6.6
15/04:30am 17.0 18.5 14.6 86 1.4 CALM 0 0 0 0 1006.1 1004.0 6.6
15/04:00am 18.2 18.9 16.2 88 1.2 ESE 7 9 4 5 1005.9 1003.8 6.6
15/03:30am 18.4 20.4 16.0 86 1.4 CALM 0 0 0 0 1005.7 1003.6 6.6
15/03:00am 18.3 20.2 15.7 85 1.6 CALM 0 0 0 0 1005.9 1003.8 6.6
15/02:30am 18.4 20.4 16.0 86 1.4 CALM 0 0 0 0 1006.1 1004.0 6.6
15/02:00am 18.9 21.0 16.3 85 1.6 CALM 0 0 0 0 1006.5 1004.5 6.6
15/01:30am 19.5 21.9 16.9 85 1.6 CALM 0 0 0 0 1006.7 1004.7 6.6
15/01:00am 19.3 21.5 16.5 84 1.7 CALM 0 0 0 0 1006.3 1004.3 6.6
15/12:30am 19.4 21.5 16.2 82 1.9 CALM 0 0 0 0 1006.1 1004.0 6.6
15/12:00am 20.2 22.6 17.0 82 2.0 CALM 0 0 0 0 1006.1 1004.0 6.6
 
Date/Time
EDT
Temp
°C
App
Temp
°C
Dew
Point
°C
Rel
Hum
%
Delta-T
°C
Wind Press
QNH
hPa
Press
MSL
hPa
Rain since
9am
mm
Dir  Spd
km/h
Gust
km/h
Spd
kts
Gust
kts
14/11:30pm 20.2 21.0 17.2 83 1.9 E 9 13 5 7 1005.9 1003.8 6.6
14/11:00pm 20.5 22.6 17.3 82 2.0 SW 2 7 1 4 1005.8 1003.7 6.6
14/10:30pm 20.7 21.2 17.5 82 2.0 SSE 11 13 6 7 1006.0 1003.9 6.6
14/10:00pm 20.4 20.4 17.2 82 2.0 SSE 13 13 7 7 1006.2 1004.2 6.6
14/09:30pm 21.2 22.6 17.8 81 2.1 SE 7 11 4 6 1006.1 1004.0 6.6
14/09:00pm 21.0 21.6 17.6 81 2.1 E 11 11 6 6 1005.7 1003.6 6.6
14/08:30pm 20.7 21.8 16.7 78 2.5 E 6 11 3 6 1005.1 1003.0 6.6
14/08:00pm 20.6 20.1 15.8 74 2.9 NE 13 17 7 9 1004.2 1002.2 6.6
14/07:44pm 25.1 24.4 15.4 55 6.0 WNW 13 61 7 33 1004.1 1002.1 5.8
14/07:30pm 26.3 25.9 16.3 54 6.3 WSW 13 19 7 10 1003.0 1000.9 5.8
14/07:00pm 27.6 26.4 16.2 49 7.2 WNW 17 24 9 13 1003.0 1000.9 5.8
14/06:30pm 28.1 26.0 16.1 48 7.5 NW 22 30 12 16 1001.9 999.9 5.8
14/06:00pm 28.9 26.4 17.1 49 7.6 NW 26 39 14 21 1002.2 1000.1 5.8
14/05:30pm 28.5 24.4 16.4 48 7.6 NW 33 46 18 25 1002.1 1000.0 5.8
14/05:00pm 28.6 25.5 18.4 54 6.7 NW 32 44 17 24 1002.2 1000.1 5.8
14/04:30pm 28.2 27.0 18.3 55 6.4 NNW 22 32 12 17 1002.2 1000.1 5.8
14/04:00pm 28.7 27.5 19.3 56 6.2 NNW 24 32 13 17 1002.5 1000.4 5.8
14/03:30pm 27.1 26.5 18.9 61 5.3 N 20 26 11 14 1002.7 1000.6 5.8
14/03:00pm 25.7 26.4 19.6 69 4.0 NW 15 22 8 12 1003.5 1001.4 5.8
14/02:30pm 24.3 23.7 18.9 72 3.5 NNW 20 30 11 16 1003.8 1001.7 5.8
14/02:15pm 23.2 22.5 18.7 76 2.9 NW 20 32 11 17 1004.0 1002.0 5.8
14/02:00pm 22.4 24.5 20.1 87 1.5 WNW 9 13 5 7 1004.3 1002.3 5.8
14/01:55pm 21.8 23.2 19.5 87 1.5 NW 11 19 6 10 1004.4 1002.4 5.8
14/01:36pm 20.1 16.8 16.9 82 2.0 WNW 30 48 16 26 1004.6 1002.6 5.4
14/01:31pm 21.3 17.7 17.7 80 2.3 NW 33 54 18 29 1004.9 1002.8 1.2
14/01:30pm 21.9 18.4 17.9 78 2.5 NW 33 54 18 29 1004.8 1002.7 0.6
14/01:27pm 22.7 18.9 18.0 75 3.0 NW 35 54 19 29 1004.4 1002.4 0.2
14/01:24pm 23.1 19.1 17.6 71 3.5 NNW 35 54 19 29 1004.1 1002.1 0.2
14/01:22pm 24.2 20.5 17.4 65 4.3 NNW 33 54 18 29 1003.9 1001.9 0.2
14/01:00pm 25.7 23.1 17.9 62 5.0 N 28 39 15 21 1003.3 1001.2 0.2
14/12:30pm 27.0 24.0 18.6 60 5.4 NNW 32 46 17 25 1003.7 1001.6 0.2
14/12:04pm 26.5 22.4 17.3 57 5.8 NNW 35 56 19 30 1003.8 1001.7 0.0
14/12:00pm 26.6 23.1 17.9 59 5.6 NNW 33 48 18 26 1003.8 1001.7 0.0
14/11:30am 26.3 22.5 17.1 57 5.8 NNW 33 43 18 23 1003.8 1001.7 0.0
14/11:00am 26.7 23.0 16.9 55 6.2 N 32 46 17 25 1003.5 1001.4 0.0
14/10:30am 26.8 23.0 16.7 54 6.4 NNW 32 48 17 26 1003.5 1001.4 0.0
14/10:00am 25.4 22.3 16.5 58 5.6 NNW 28 39 15 21 1003.7 1001.6 0.0
14/09:30am 25.0 20.0 16.2 58 5.5 NNW 37 48 20 26 1003.7 1001.6 0.0
14/09:00am 24.4 20.7 16.9 63 4.7 N 32 43 17 23 1003.5 1001.4 3.2
14/08:30am 24.5 22.6 16.7 61 4.9 N 22 37 12 20 1003.5 1001.4 3.2
14/08:00am 23.6 22.4 17.1 67 4.1 N 19 26 10 14 1003.4 1001.3 3.2
14/07:30am 23.8 22.0 17.8 69 3.8 N 24 32 13 17 1003.4 1001.3 3.2
14/07:00am 21.6 21.6 18.0 80 2.3 N 15 20 8 11 1003.2 1001.1 3.2
14/06:40am 20.7 22.1 17.7 83 1.9 N 7 13 4 7 1003.1 1001.0 3.2
14/06:30am 20.4 21.3 17.6 84 1.7 NNW 9 17 5 9 1003.0 1000.9 3.2
14/06:09am 21.8 21.4 17.2 75 2.9 N 15 26 8 14 1003.1 1001.0 0.6
14/06:00am 21.2 23.0 16.4 74 3.0 NW 2 7 1 4 1002.9 1000.8 0.2
14/05:30am 21.2 23.4 16.4 74 3.0 CALM 0 0 0 0 1002.7 1000.6 0.2
14/05:00am 20.5 22.5 15.9 75 2.8 CALM 0 0 0 0 1002.3 1000.2 0.2
14/04:30am 20.5 21.0 15.5 73 3.0 W 7 11 4 6 1001.9 999.9 0.2
14/04:00am 21.2 21.8 15.7 71 3.4 WNW 7 11 4 6 1001.6 999.6 0.2
14/03:30am 20.7 20.3 16.3 76 2.7 SW 13 17 7 9 1002.1 1000.0 0.2
14/03:00am 19.6 20.1 15.5 77 2.5 S 7 9 4 5 1002.1 1000.0 0.2
14/02:30am 20.7 22.6 15.7 73 3.0 CALM 0 6 0 3 1002.5 1000.4 0.2
14/02:00am 20.4 20.8 15.4 73 3.0 SSW 7 11 4 6 1002.6 1000.5 0.2
14/01:30am 19.8 20.2 15.4 76 2.6 SW 7 9 4 5 1002.9 1000.8 0.2
14/01:00am 19.9 21.1 14.9 73 3.0 SSE 2 7 1 4 1003.2 1001.1 0.2
14/12:30am 20.5 21.2 15.7 74 2.9 SSW 6 9 3 5 1003.0 1000.9 0.2
14/12:00am 20.2 20.8 15.4 74 2.9 WSW 6 7 3 4 1003.5 1001.4 0.2
 
Date/Time
EDT
Temp
°C
App
Temp
°C
Dew
Point
°C
Rel
Hum
%
Delta-T
°C
Wind Press
QNH
hPa
Press
MSL
hPa
Rain since
9am
mm
Dir  Spd
km/h
Gust
km/h
Spd
kts
Gust
kts
13/11:30pm 19.9 19.4 16.0 78 2.4 SSW 13 15 7 8 1003.6 1001.5 0.2
13/11:00pm 19.6 21.0 15.5 77 2.5 S 2 9 1 5 1003.5 1001.4 0.2
13/10:30pm 19.4 20.0 15.3 77 2.5 SSW 6 13 3 7 1003.9 1001.9 0.2
13/10:00pm 19.4 19.0 15.1 76 2.6 WSW 11 13 6 7 1003.4 1001.3 0.2
13/09:30pm 19.9 20.4 14.9 73 3.0 WSW 6 9 3 5 1002.9 1000.8 0.2
13/09:00pm 19.3 18.7 15.6 79 2.2 SW 13 15 7 8 1003.2 1001.1 0.2
13/08:30pm 20.2 20.2 15.2 73 3.0 WSW 9 13 5 7 1002.7 1000.6 0.2
13/08:00pm 21.4 21.4 15.3 68 3.7 SSW 9 15 5 8 1002.4 1000.3 0.2
13/07:30pm 22.3 22.7 15.4 65 4.2 NE 7 11 4 6 1001.9 999.9 0.2
13/07:00pm 21.8 20.2 15.9 69 3.6 N 19 28 10 15 1001.9 999.9 0.2
13/06:30pm 22.2 20.0 16.0 68 3.8 N 22 28 12 15 1002.5 1000.4 0.2
13/06:00pm 22.1 19.5 16.8 72 3.3 N 26 39 14 21 1003.2 1001.1 0.2
13/05:38pm 21.7 17.1 15.1 66 4.0 NW 33 50 18 27 1003.2 1001.1 0.2
13/05:30pm 22.2 16.2 15.5 66 4.1 NW 41 54 22 29 1003.1 1001.0 0.2
13/05:21pm 23.5 16.0 15.0 59 5.2 WNW 48 67 26 36 1002.3 1000.2 0.2
13/05:08pm 27.2 22.8 15.6 49 7.2 NW 33 67 18 36 1002.1 1000.0 0.2
13/05:06pm 28.0 24.7 16.0 48 7.5 NNW 28 57 15 31 1001.9 999.9 0.2
13/05:00pm 28.0 25.1 16.0 48 7.5 NNW 26 37 14 20 1001.7 999.7 0.2
13/04:30pm 27.4 27.2 17.6 55 6.3 N 15 20 8 11 1000.5 998.4 0.2
13/04:00pm 27.8 27.7 17.0 51 6.9 NNE 13 19 7 10 1000.9 998.8 0.2
13/03:30pm 26.8 25.5 15.8 51 6.8 N 17 24 9 13 1001.7 999.7 0.2
13/03:00pm 29.0 26.3 15.5 44 8.5 NNW 24 37 13 20 1002.7 1000.6 0.2
13/02:30pm 31.2 27.9 13.9 35 10.6 NNW 24 35 13 19 1003.2 1001.1 0.2
13/02:00pm 30.9 27.4 14.5 37 10.2 NNW 26 37 14 20 1003.9 1001.9 0.2
13/01:30pm 29.1 24.6 14.9 42 8.8 N 32 46 17 25 1004.3 1002.3 0.2
13/01:00pm 29.4 26.9 15.1 41 8.9 NNW 22 33 12 18 1004.5 1002.5 0.2
13/12:30pm 29.0 25.4 15.2 43 8.6 NNW 28 39 15 21 1005.1 1003.0 0.2
13/12:00pm 27.9 24.4 15.5 46 7.7 N 28 39 15 21 1005.3 1003.2 0.2
13/11:30am 27.5 23.2 14.5 45 7.9 N 30 43 16 23 1005.4 1003.3 0.2
13/11:00am 28.0 23.5 15.0 45 8.0 N 32 46 17 25 1005.8 1003.7 0.2
13/10:30am 27.8 25.0 16.4 50 7.2 NNW 26 39 14 21 1006.0 1003.9 0.2
13/10:00am 26.4 23.4 15.8 52 6.6 NNW 26 35 14 19 1006.6 1004.6 0.0
13/09:30am 25.2 23.1 16.1 57 5.7 N 22 37 12 20 1006.8 1004.8 0.0
13/09:00am 23.9 23.7 16.7 64 4.5 NNE 13 20 7 11 1007.3 1005.3 0.4
13/08:30am 22.2 21.9 16.5 70 3.5 NNE 13 20 7 11 1007.5 1005.4 0.4
13/08:00am 21.1 22.6 16.7 76 2.7 NE 4 11 2 6 1008.3 1006.2 0.4
13/07:30am 20.0 19.8 16.6 81 2.1 NE 13 17 7 9 1008.4 1006.4 0.4
13/07:00am 20.5 21.5 16.3 77 2.6 NW 6 9 3 5 1009.2 1007.2 0.0
13/06:30am 19.8 21.6 16.4 81 2.1 NNE 2 7 1 4 1008.8 1006.8 0.0
13/06:00am 19.7 20.1 16.3 81 2.1 N 9 13 5 7 1008.8 1006.8 0.0
13/05:30am 19.7 21.5 15.6 77 2.5 CALM 0 0 0 0 1008.9 1006.9 0.0
13/05:00am 20.1 20.7 15.3 74 2.9 NNE 6 9 3 5 1008.5 1006.5 0.0
13/04:30am 20.6 20.7 15.4 72 3.1 E 9 11 5 6 1008.1 1006.0 0.0
13/04:00am 20.4 20.1 15.4 73 3.0 ENE 11 11 6 6 1008.7 1006.7 0.0
13/03:30am 20.9 20.9 15.2 70 3.4 NE 9 13 5 7 1009.1 1007.1 0.0
13/03:00am 20.4 20.8 15.2 72 3.1 WSW 7 11 4 6 1009.2 1007.2 0.0
13/02:30am 19.6 18.8 15.0 75 2.7 WSW 13 15 7 8 1009.0 1007.0 0.0
13/02:00am 20.1 20.3 14.7 71 3.2 W 7 11 4 6 1009.2 1007.2 0.0
13/01:30am 20.5 20.7 14.8 70 3.4 S 7 11 4 6 1009.6 1007.6 0.0
13/01:00am 20.8 20.6 14.7 68 3.6 S 9 11 5 6 1009.4 1007.4 0.0
13/12:30am 21.0 20.7 14.4 66 3.9 S 9 9 5 5 1009.7 1007.7 0.0
13/12:00am 22.5 21.6 14.9 62 4.6 E 13 15 7 8 1009.9 1007.9 0.0
 
Date/Time
EDT
Temp
°C
App
Temp
°C
Dew
Point
°C
Rel
Hum
%
Delta-T
°C
Wind Press
QNH
hPa
Press
MSL
hPa
Rain since
9am
mm
Dir  Spd
km/h
Gust
km/h
Spd
kts
Gust
kts
12/11:30pm 22.0 21.8 14.6 63 4.4 ESE 9 13 5 7 1010.1 1008.0 0.0
12/11:00pm 22.6 21.5 14.2 59 5.0 ENE 13 19 7 10 1010.2 1008.1 0.0
12/10:30pm 23.0 21.6 14.6 59 5.0 E 15 22 8 12 1009.6 1007.6 0.0
12/10:00pm 23.3 21.7 14.0 56 5.6 E 15 19 8 10 1009.9 1007.9 0.0
12/09:30pm 23.8 22.1 13.6 52 6.1 E 15 17 8 9 1009.9 1007.9 0.0
12/09:00pm 24.3 22.6 13.5 51 6.4 E 15 17 8 9 1009.8 1007.8 0.0
12/08:30pm 23.3 22.9 12.9 52 6.1 ENE 7 9 4 5 1009.2 1007.2 0.0
12/08:00pm 24.9 23.4 13.1 48 7.0 N 13 17 7 9 1009.2 1007.2 0.0
12/07:30pm 25.8 23.3 13.6 47 7.3 N 19 24 10 13 1009.3 1007.3 0.0
12/07:00pm 26.2 24.3 14.3 48 7.2 N 17 22 9 12 1009.3 1007.3 0.0
12/06:30pm 26.0 23.3 14.5 49 7.0 N 22 30 12 16 1009.4 1007.4 0.0
12/06:00pm 26.5 23.7 14.3 47 7.4 N 22 28 12 15 1009.4 1007.4 0.0
12/05:30pm 28.7 27.9 13.0 38 9.4 W 9 15 5 8 1009.6 1007.6 0.0
12/05:00pm 28.7 27.4 12.6 37 9.6 SW 11 19 6 10 1009.8 1007.8 0.0
12/04:30pm 29.1 26.3 12.5 36 9.9 SW 19 32 10 17 1009.8 1007.8 0.0
12/04:00pm 29.8 28.6 12.7 35 10.3 SSW 11 20 6 11 1009.8 1007.8 0.0
12/03:30pm 28.9 28.6 13.2 38 9.5 W 7 13 4 7 1010.7 1008.7 0.0
12/03:00pm 29.6 29.6 14.2 39 9.5 NNW 7 19 4 10 1010.9 1008.9 0.0
12/02:30pm 27.9 29.0 13.4 40 8.7 CALM 0 6 0 3 1011.3 1009.3 0.0
12/02:00pm 27.4 26.5 13.7 43 8.3 WNW 11 17 6 9 1011.7 1009.7 0.0
12/01:30pm 27.6 27.0 13.5 41 8.5 WNW 9 15 5 8 1012.4 1010.4 0.0
12/01:00pm 28.0 27.3 13.1 39 8.9 S 9 15 5 8 1012.9 1010.8 0.0
12/12:30pm 27.7 27.0 14.3 43 8.2 NW 11 20 6 11 1013.3 1011.3 0.0
12/12:00pm 27.0 27.7 14.4 46 7.7 NE 4 9 2 5 1013.8 1011.8 0.0
12/11:30am 26.9 27.0 14.0 45 7.8 E 6 15 3 8 1014.2 1012.2 0.0
12/11:00am 26.2 26.1 14.0 47 7.4 NW 7 13 4 7 1014.6 1012.6 0.0

Other Formats:

Comma delimited format used in spreadsheet applications
http://www.bom.gov.au/fwo/IDN60801/IDN60801.95762.axf

JavaScript Object Notation format (JSON) in row-major order
http://www.bom.gov.au/fwo/IDN60801/IDN60801.95762.json